sensor_id;sensor_type;location;lat;lon;timestamp;pressure;altitude;pressure_sealevel;temperature;humidity
37848;BME280;23688;33.130;-117.188;2023-12-28T00:01:45;99948.88;;;15.86;100.00
37848;BME280;23688;33.130;-117.188;2023-12-28T00:04:11;99955.22;;;15.64;100.00
37848;BME280;23688;33.130;-117.188;2023-12-28T00:06:38;99955.69;;;15.51;100.00
37848;BME280;23688;33.130;-117.188;2023-12-28T00:09:04;99963.31;;;15.41;100.00
37848;BME280;23688;33.130;-117.188;2023-12-28T00:11:30;99957.72;;;15.31;100.00
37848;BME280;23688;33.130;-117.188;2023-12-28T00:13:57;99968.63;;;15.45;100.00
37848;BME280;23688;33.130;-117.188;2023-12-28T00:16:23;99956.13;;;15.36;100.00
37848;BME280;23688;33.130;-117.188;2023-12-28T00:18:49;99970.66;;;15.26;100.00
37848;BME280;23688;33.130;-117.188;2023-12-28T00:21:16;99967.50;;;15.08;100.00
37848;BME280;23688;33.130;-117.188;2023-12-28T00:23:42;99972.75;;;15.08;100.00
37848;BME280;23688;33.130;-117.188;2023-12-28T00:26:08;99975.00;;;15.24;100.00
37848;BME280;23688;33.130;-117.188;2023-12-28T00:28:34;99977.69;;;15.27;100.00
37848;BME280;23688;33.130;-117.188;2023-12-28T00:31:01;99978.81;;;15.35;100.00
37848;BME280;23688;33.130;-117.188;2023-12-28T00:33:27;99972.25;;;15.21;100.00
37848;BME280;23688;33.130;-117.188;2023-12-28T00:35:54;99988.34;;;15.05;100.00
37848;BME280;23688;33.130;-117.188;2023-12-28T00:38:20;99988.78;;;14.91;100.00
37848;BME280;23688;33.130;-117.188;2023-12-28T00:40:46;99999.63;;;15.04;100.00
37848;BME280;23688;33.130;-117.188;2023-12-28T00:43:13;100000.63;;;15.07;100.00
37848;BME280;23688;33.130;-117.188;2023-12-28T00:45:39;99997.28;;;14.84;100.00
37848;BME280;23688;33.130;-117.188;2023-12-28T00:48:07;100011.44;;;14.91;100.00
37848;BME280;23688;33.130;-117.188;2023-12-28T00:50:34;99992.09;;;14.86;100.00
37848;BME280;23688;33.130;-117.188;2023-12-28T00:53:00;99987.34;;;15.01;100.00
37848;BME280;23688;33.130;-117.188;2023-12-28T00:55:26;100011.13;;;15.09;100.00
37848;BME280;23688;33.130;-117.188;2023-12-28T00:57:53;99988.06;;;14.95;100.00
37848;BME280;23688;33.130;-117.188;2023-12-28T01:00:20;100015.66;;;14.87;100.00
37848;BME280;23688;33.130;-117.188;2023-12-28T01:02:46;100015.25;;;14.75;100.00
37848;BME280;23688;33.130;-117.188;2023-12-28T01:05:16;100029.88;;;14.68;100.00
37848;BME280;23688;33.130;-117.188;2023-12-28T01:07:43;100022.88;;;14.43;100.00
37848;BME280;23688;33.130;-117.188;2023-12-28T01:10:09;100036.38;;;14.30;100.00
37848;BME280;23688;33.130;-117.188;2023-12-28T01:12:36;100031.69;;;14.21;100.00
37848;BME280;23688;33.130;-117.188;2023-12-28T01:15:02;100043.25;;;14.28;100.00
37848;BME280;23688;33.130;-117.188;2023-12-28T01:17:28;100028.63;;;14.33;100.00
37848;BME280;23688;33.130;-117.188;2023-12-28T01:19:55;100037.41;;;14.35;100.00
37848;BME280;23688;33.130;-117.188;2023-12-28T01:22:21;100037.97;;;14.26;100.00
37848;BME280;23688;33.130;-117.188;2023-12-28T01:24:47;100028.28;;;14.22;100.00
37848;BME280;23688;33.130;-117.188;2023-12-28T01:27:15;100049.06;;;14.19;100.00
37848;BME280;23688;33.130;-117.188;2023-12-28T01:29:42;100052.38;;;14.15;100.00
37848;BME280;23688;33.130;-117.188;2023-12-28T01:32:08;100052.31;;;14.13;100.00
37848;BME280;23688;33.130;-117.188;2023-12-28T01:34:34;100062.75;;;14.13;100.00
37848;BME280;23688;33.130;-117.188;2023-12-28T01:37:01;100058.31;;;14.11;100.00
37848;BME280;23688;33.130;-117.188;2023-12-28T01:39:27;100057.34;;;14.07;100.00
37848;BME280;23688;33.130;-117.188;2023-12-28T01:41:54;100067.94;;;14.12;100.00
37848;BME280;23688;33.130;-117.188;2023-12-28T01:44:21;100065.81;;;14.26;100.00
37848;BME280;23688;33.130;-117.188;2023-12-28T01:46:47;100068.31;;;14.47;100.00
37848;BME280;23688;33.130;-117.188;2023-12-28T01:49:14;100064.72;;;14.69;100.00
37848;BME280;23688;33.130;-117.188;2023-12-28T01:51:40;100059.69;;;14.75;100.00
37848;BME280;23688;33.130;-117.188;2023-12-28T01:54:07;100073.31;;;14.90;100.00
37848;BME280;23688;33.130;-117.188;2023-12-28T01:56:34;100060.00;;;14.84;100.00
37848;BME280;23688;33.130;-117.188;2023-12-28T01:59:00;100068.34;;;14.99;100.00
37848;BME280;23688;33.130;-117.188;2023-12-28T02:01:27;100054.53;;;15.04;100.00
37848;BME280;23688;33.130;-117.188;2023-12-28T02:03:54;100065.31;;;15.13;100.00
37848;BME280;23688;33.130;-117.188;2023-12-28T02:06:23;100059.22;;;15.14;100.00
37848;BME280;23688;33.130;-117.188;2023-12-28T02:08:50;100055.97;;;15.21;100.00
37848;BME280;23688;33.130;-117.188;2023-12-28T02:11:19;100037.78;;;15.24;100.00
37848;BME280;23688;33.130;-117.188;2023-12-28T02:13:46;100044.03;;;15.29;100.00
37848;BME280;23688;33.130;-117.188;2023-12-28T02:16:36;100060.06;;;15.40;100.00
37848;BME280;23688;33.130;-117.188;2023-12-28T02:20:03;100045.16;;;15.37;100.00
37848;BME280;23688;33.130;-117.188;2023-12-28T02:22:04;100059.16;;;15.39;100.00
37848;BME280;23688;33.130;-117.188;2023-12-28T02:24:31;100058.09;;;15.33;100.00
37848;BME280;23688;33.130;-117.188;2023-12-28T02:26:58;100072.09;;;15.35;100.00
37848;BME280;23688;33.130;-117.188;2023-12-28T02:29:24;100073.03;;;15.37;100.00
37848;BME280;23688;33.130;-117.188;2023-12-28T02:31:58;100079.25;;;15.40;100.00
37848;BME280;23688;33.130;-117.188;2023-12-28T02:34:29;100080.03;;;15.38;100.00
37848;BME280;23688;33.130;-117.188;2023-12-28T02:36:57;100076.25;;;15.28;100.00
37848;BME280;23688;33.130;-117.188;2023-12-28T02:39:25;100084.88;;;15.24;100.00
37848;BME280;23688;33.130;-117.188;2023-12-28T02:41:53;100095.13;;;15.18;100.00
37848;BME280;23688;33.130;-117.188;2023-12-28T02:44:21;100088.75;;;15.10;100.00
37848;BME280;23688;33.130;-117.188;2023-12-28T02:46:47;100084.88;;;14.98;100.00
37848;BME280;23688;33.130;-117.188;2023-12-28T02:49:13;100080.16;;;15.14;100.00
37848;BME280;23688;33.130;-117.188;2023-12-28T02:51:41;100069.69;;;15.14;100.00
37848;BME280;23688;33.130;-117.188;2023-12-28T02:54:08;100077.91;;;15.26;100.00
37848;BME280;23688;33.130;-117.188;2023-12-28T02:56:34;100069.41;;;15.32;100.00
37848;BME280;23688;33.130;-117.188;2023-12-28T02:59:01;100069.44;;;15.33;100.00
37848;BME280;23688;33.130;-117.188;2023-12-28T03:01:27;100050.25;;;15.33;100.00
37848;BME280;23688;33.130;-117.188;2023-12-28T03:03:54;100053.97;;;15.41;100.00
37848;BME280;23688;33.130;-117.188;2023-12-28T03:06:20;100050.47;;;15.40;100.00
37848;BME280;23688;33.130;-117.188;2023-12-28T03:08:46;100054.88;;;15.41;100.00
37848;BME280;23688;33.130;-117.188;2023-12-28T03:11:13;100064.19;;;15.33;100.00
37848;BME280;23688;33.130;-117.188;2023-12-28T03:13:39;100060.06;;;15.13;100.00
37848;BME280;23688;33.130;-117.188;2023-12-28T03:16:05;100067.38;;;15.23;100.00
37848;BME280;23688;33.130;-117.188;2023-12-28T03:18:35;100065.84;;;15.30;100.00
37848;BME280;23688;33.130;-117.188;2023-12-28T03:21:01;100071.97;;;15.30;100.00
37848;BME280;23688;33.130;-117.188;2023-12-28T03:23:28;100073.47;;;15.24;100.00
37848;BME280;23688;33.130;-117.188;2023-12-28T03:25:54;100071.66;;;15.21;100.00
37848;BME280;23688;33.130;-117.188;2023-12-28T03:28:20;100084.75;;;15.21;100.00
37848;BME280;23688;33.130;-117.188;2023-12-28T03:30:47;100087.13;;;15.13;100.00
37848;BME280;23688;33.130;-117.188;2023-12-28T03:33:13;100086.94;;;15.07;100.00
37848;BME280;23688;33.130;-117.188;2023-12-28T03:35:40;100083.53;;;15.10;100.00
37848;BME280;23688;33.130;-117.188;2023-12-28T03:38:06;100068.78;;;15.12;100.00
37848;BME280;23688;33.130;-117.188;2023-12-28T03:40:32;100067.19;;;15.17;100.00
37848;BME280;23688;33.130;-117.188;2023-12-28T03:42:59;100072.44;;;15.17;100.00
37848;BME280;23688;33.130;-117.188;2023-12-28T03:45:25;100070.00;;;15.23;100.00
37848;BME280;23688;33.130;-117.188;2023-12-28T03:47:52;100072.50;;;15.20;100.00
37848;BME280;23688;33.130;-117.188;2023-12-28T03:50:18;100076.88;;;15.21;100.00
37848;BME280;23688;33.130;-117.188;2023-12-28T03:52:44;100060.06;;;15.13;100.00
37848;BME280;23688;33.130;-117.188;2023-12-28T03:55:11;100064.44;;;15.12;100.00
37848;BME280;23688;33.130;-117.188;2023-12-28T03:57:37;100078.47;;;15.16;100.00
37848;BME280;23688;33.130;-117.188;2023-12-28T04:00:04;100071.41;;;15.13;100.00
37848;BME280;23688;33.130;-117.188;2023-12-28T04:02:30;100065.94;;;15.06;100.00
37848;BME280;23688;33.130;-117.188;2023-12-28T04:04:57;100060.41;;;14.96;100.00
37848;BME280;23688;33.130;-117.188;2023-12-28T04:07:24;100066.59;;;14.98;100.00
37848;BME280;23688;33.130;-117.188;2023-12-28T04:09:51;100079.66;;;14.98;100.00
37848;BME280;23688;33.130;-117.188;2023-12-28T04:12:17;100072.28;;;14.87;100.00
37848;BME280;23688;33.130;-117.188;2023-12-28T04:14:43;100057.41;;;14.84;100.00
37848;BME280;23688;33.130;-117.188;2023-12-28T04:17:10;100058.03;;;14.77;100.00
37848;BME280;23688;33.130;-117.188;2023-12-28T04:19:36;100068.38;;;14.74;100.00
37848;BME280;23688;33.130;-117.188;2023-12-28T04:22:02;100072.31;;;14.61;100.00
37848;BME280;23688;33.130;-117.188;2023-12-28T04:24:29;100060.38;;;14.44;100.00
37848;BME280;23688;33.130;-117.188;2023-12-28T04:26:55;100066.06;;;14.33;100.00
37848;BME280;23688;33.130;-117.188;2023-12-28T04:29:22;100068.50;;;14.27;100.00
37848;BME280;23688;33.130;-117.188;2023-12-28T04:31:48;100070.22;;;14.27;100.00
37848;BME280;23688;33.130;-117.188;2023-12-28T04:34:14;100061.16;;;14.17;100.00
37848;BME280;23688;33.130;-117.188;2023-12-28T04:36:41;100069.03;;;14.19;100.00
37848;BME280;23688;33.130;-117.188;2023-12-28T04:39:12;100048.59;;;14.07;100.00
37848;BME280;23688;33.130;-117.188;2023-12-28T04:41:39;100074.22;;;14.17;100.00
37848;BME280;23688;33.130;-117.188;2023-12-28T04:44:05;100086.38;;;14.17;100.00
37848;BME280;23688;33.130;-117.188;2023-12-28T04:46:31;100070.50;;;14.10;100.00
37848;BME280;23688;33.130;-117.188;2023-12-28T04:48:58;100083.72;;;14.15;100.00
37848;BME280;23688;33.130;-117.188;2023-12-28T04:51:24;100082.69;;;14.11;100.00
37848;BME280;23688;33.130;-117.188;2023-12-28T04:53:50;100103.59;;;14.11;100.00
37848;BME280;23688;33.130;-117.188;2023-12-28T04:56:20;100097.28;;;14.05;100.00
37848;BME280;23688;33.130;-117.188;2023-12-28T04:58:46;100110.19;;;14.02;100.00
37848;BME280;23688;33.130;-117.188;2023-12-28T05:01:12;100098.41;;;13.89;100.00
37848;BME280;23688;33.130;-117.188;2023-12-28T05:03:38;100097.19;;;13.79;100.00
37848;BME280;23688;33.130;-117.188;2023-12-28T05:06:05;100124.94;;;13.77;100.00
37848;BME280;23688;33.130;-117.188;2023-12-28T05:08:31;100122.97;;;13.72;100.00
37848;BME280;23688;33.130;-117.188;2023-12-28T05:10:57;100125.59;;;13.72;100.00
37848;BME280;23688;33.130;-117.188;2023-12-28T05:13:24;100125.53;;;13.70;100.00
37848;BME280;23688;33.130;-117.188;2023-12-28T05:15:50;100131.50;;;13.67;100.00
37848;BME280;23688;33.130;-117.188;2023-12-28T05:18:16;100141.06;;;13.67;100.00
37848;BME280;23688;33.130;-117.188;2023-12-28T05:20:43;100123.38;;;13.60;100.00
37848;BME280;23688;33.130;-117.188;2023-12-28T05:23:09;100126.28;;;13.67;100.00
37848;BME280;23688;33.130;-117.188;2023-12-28T05:25:35;100109.66;;;13.64;100.00
37848;BME280;23688;33.130;-117.188;2023-12-28T05:28:02;100125.59;;;13.72;100.00
37848;BME280;23688;33.130;-117.188;2023-12-28T05:30:28;100141.31;;;13.73;100.00
37848;BME280;23688;33.130;-117.188;2023-12-28T05:32:55;100139.59;;;13.74;100.00
37848;BME280;23688;33.130;-117.188;2023-12-28T05:35:21;100124.63;;;13.69;100.00
37848;BME280;23688;33.130;-117.188;2023-12-28T05:37:48;100138.75;;;13.75;100.00
37848;BME280;23688;33.130;-117.188;2023-12-28T05:40:14;100145.00;;;13.78;100.00
37848;BME280;23688;33.130;-117.188;2023-12-28T05:42:40;100145.88;;;13.79;100.00
37848;BME280;23688;33.130;-117.188;2023-12-28T05:45:07;100140.78;;;13.82;100.00
37848;BME280;23688;33.130;-117.188;2023-12-28T05:47:33;100131.00;;;13.76;100.00
37848;BME280;23688;33.130;-117.188;2023-12-28T05:50:00;100142.56;;;13.83;100.00
37848;BME280;23688;33.130;-117.188;2023-12-28T05:52:28;100153.16;;;13.87;100.00
37848;BME280;23688;33.130;-117.188;2023-12-28T05:54:55;100149.81;;;13.90;100.00
37848;BME280;23688;33.130;-117.188;2023-12-28T05:57:22;100148.13;;;13.92;100.00
37848;BME280;23688;33.130;-117.188;2023-12-28T05:59:48;100147.22;;;13.91;100.00
37848;BME280;23688;33.130;-117.188;2023-12-28T06:02:15;100130.59;;;13.88;100.00
37848;BME280;23688;33.130;-117.188;2023-12-28T06:04:41;100139.50;;;13.95;100.00
37848;BME280;23688;33.130;-117.188;2023-12-28T06:07:07;100133.13;;;13.86;100.00
37848;BME280;23688;33.130;-117.188;2023-12-28T06:09:34;100126.31;;;13.90;100.00
37848;BME280;23688;33.130;-117.188;2023-12-28T06:12:00;100131.56;;;13.91;100.00
37848;BME280;23688;33.130;-117.188;2023-12-28T06:14:26;100131.56;;;13.91;100.00
37848;BME280;23688;33.130;-117.188;2023-12-28T06:16:53;100130.88;;;13.96;100.00
37848;BME280;23688;33.130;-117.188;2023-12-28T06:19:19;100126.47;;;13.95;100.00
37848;BME280;23688;33.130;-117.188;2023-12-28T06:21:45;100135.38;;;14.00;100.00
37848;BME280;23688;33.130;-117.188;2023-12-28T06:24:12;100130.19;;;14.01;100.00
37848;BME280;23688;33.130;-117.188;2023-12-28T06:26:42;100124.19;;;14.04;100.00
37848;BME280;23688;33.130;-117.188;2023-12-28T06:29:09;100120.88;;;14.08;100.00
37848;BME280;23688;33.130;-117.188;2023-12-28T06:31:36;100108.63;;;14.07;100.00
37848;BME280;23688;33.130;-117.188;2023-12-28T06:34:06;100109.00;;;14.16;100.00
37848;BME280;23688;33.130;-117.188;2023-12-28T06:36:33;100107.41;;;14.20;100.00
37848;BME280;23688;33.130;-117.188;2023-12-28T06:39:00;100097.75;;;14.19;100.00
37848;BME280;23688;33.130;-117.188;2023-12-28T06:41:26;100097.81;;;14.20;100.00
37848;BME280;23688;33.130;-117.188;2023-12-28T06:43:52;100101.41;;;14.22;100.00
37848;BME280;23688;33.130;-117.188;2023-12-28T06:46:19;100106.63;;;14.22;100.00
37848;BME280;23688;33.130;-117.188;2023-12-28T06:48:46;100105.94;;;14.28;100.00
37848;BME280;23688;33.130;-117.188;2023-12-28T06:51:19;100114.81;;;14.33;100.00
37848;BME280;23688;33.130;-117.188;2023-12-28T06:53:46;100107.88;;;14.33;100.00
37848;BME280;23688;33.130;-117.188;2023-12-28T06:56:13;100121.09;;;14.38;100.00
37848;BME280;23688;33.130;-117.188;2023-12-28T06:58:39;100113.41;;;14.41;100.00
37848;BME280;23688;33.130;-117.188;2023-12-28T07:01:06;100100.28;;;14.40;100.00
37848;BME280;23688;33.130;-117.188;2023-12-28T07:03:32;100106.59;;;14.46;100.00
37848;BME280;23688;33.130;-117.188;2023-12-28T07:05:59;100113.53;;;14.46;100.00
37848;BME280;23688;33.130;-117.188;2023-12-28T07:08:26;100106.38;;;14.40;100.00
37848;BME280;23688;33.130;-117.188;2023-12-28T07:10:52;100121.50;;;14.49;100.00
37848;BME280;23688;33.130;-117.188;2023-12-28T07:13:19;100119.78;;;14.49;100.00
37848;BME280;23688;33.130;-117.188;2023-12-28T07:15:45;100111.94;;;14.49;100.00
37848;BME280;23688;33.130;-117.188;2023-12-28T07:18:11;100110.28;;;14.51;100.00
37848;BME280;23688;33.130;-117.188;2023-12-28T07:20:38;100100.63;;;14.50;100.00
37848;BME280;23688;33.130;-117.188;2023-12-28T07:23:04;100107.50;;;14.47;100.00
37848;BME280;23688;33.130;-117.188;2023-12-28T07:25:30;100106.72;;;14.49;100.00
37848;BME280;23688;33.130;-117.188;2023-12-28T07:27:57;100105.81;;;14.49;100.00
37848;BME280;23688;33.130;-117.188;2023-12-28T07:30:23;100091.56;;;14.39;100.00
37848;BME280;23688;33.130;-117.188;2023-12-28T07:32:50;100114.63;;;14.51;100.00
37848;BME280;23688;33.130;-117.188;2023-12-28T07:35:17;100105.03;;;14.51;100.00
37848;BME280;23688;33.130;-117.188;2023-12-28T07:37:43;100113.97;;;14.57;100.00
37848;BME280;23688;33.130;-117.188;2023-12-28T07:40:12;100114.06;;;14.60;100.00
37848;BME280;23688;33.130;-117.188;2023-12-28T07:42:39;100120.91;;;14.56;100.00
37848;BME280;23688;33.130;-117.188;2023-12-28T07:45:06;100126.19;;;14.58;100.00
37848;BME280;23688;33.130;-117.188;2023-12-28T07:47:32;100115.72;;;14.58;100.00
37848;BME280;23688;33.130;-117.188;2023-12-28T07:49:59;100113.25;;;14.61;100.00
37848;BME280;23688;33.130;-117.188;2023-12-28T07:52:26;100112.41;;;14.62;100.00
37848;BME280;23688;33.130;-117.188;2023-12-28T07:54:52;100104.63;;;14.63;100.00
37848;BME280;23688;33.130;-117.188;2023-12-28T07:57:19;100087.88;;;14.58;100.00
37848;BME280;23688;33.130;-117.188;2023-12-28T07:59:45;100071.91;;;14.50;100.00
37848;BME280;23688;33.130;-117.188;2023-12-28T08:02:11;100098.31;;;14.58;100.00
37848;BME280;23688;33.130;-117.188;2023-12-28T08:04:41;100095.59;;;14.55;100.00
37848;BME280;23688;33.130;-117.188;2023-12-28T08:07:07;100096.47;;;14.54;100.00
37848;BME280;23688;33.130;-117.188;2023-12-28T08:09:34;100102.44;;;14.51;100.00
37848;BME280;23688;33.130;-117.188;2023-12-28T08:12:01;100098.94;;;14.51;100.00
37848;BME280;23688;33.130;-117.188;2023-12-28T08:14:28;100100.59;;;14.49;100.00
37848;BME280;23688;33.130;-117.188;2023-12-28T08:16:54;100088.09;;;14.40;100.00
37848;BME280;23688;33.130;-117.188;2023-12-28T08:19:21;100096.94;;;14.44;100.00
37848;BME280;23688;33.130;-117.188;2023-12-28T08:21:47;100080.88;;;14.33;100.00
37848;BME280;23688;33.130;-117.188;2023-12-28T08:24:14;100097.50;;;14.35;100.00
37848;BME280;23688;33.130;-117.188;2023-12-28T08:26:40;100096.50;;;14.31;100.00
37848;BME280;23688;33.130;-117.188;2023-12-28T08:29:06;100092.06;;;14.29;100.00
37848;BME280;23688;33.130;-117.188;2023-12-28T08:31:33;100091.91;;;14.24;100.00
37848;BME280;23688;33.130;-117.188;2023-12-28T08:33:59;100093.56;;;14.22;100.00
37848;BME280;23688;33.130;-117.188;2023-12-28T08:36:26;100096.94;;;14.20;100.00
37848;BME280;23688;33.130;-117.188;2023-12-28T08:38:52;100095.13;;;14.17;100.00
37848;BME280;23688;33.130;-117.188;2023-12-28T08:41:22;100111.59;;;14.16;100.00
37848;BME280;23688;33.130;-117.188;2023-12-28T08:43:53;100101.91;;;14.12;100.00
37848;BME280;23688;33.130;-117.188;2023-12-28T08:46:22;100100.88;;;14.08;100.00
37848;BME280;23688;33.130;-117.188;2023-12-28T08:48:51;100108.94;;;14.15;100.00
37848;BME280;23688;33.130;-117.188;2023-12-28T08:51:17;100101.91;;;14.12;100.00
37848;BME280;23688;33.130;-117.188;2023-12-28T08:53:44;100105.50;;;14.16;100.00
37848;BME280;23688;33.130;-117.188;2023-12-28T08:56:18;100094.94;;;14.12;100.00
37848;BME280;23688;33.130;-117.188;2023-12-28T08:58:45;100094.84;;;14.09;100.00
37848;BME280;23688;33.130;-117.188;2023-12-28T09:01:19;100098.25;;;14.08;100.00
37848;BME280;23688;33.130;-117.188;2023-12-28T09:03:51;100087.47;;;13.99;100.00
37848;BME280;23688;33.130;-117.188;2023-12-28T09:06:18;100101.38;;;13.98;100.00
37848;BME280;23688;33.130;-117.188;2023-12-28T09:08:45;100106.59;;;13.98;100.00
37848;BME280;23688;33.130;-117.188;2023-12-28T09:11:14;100107.38;;;13.96;100.00
37848;BME280;23688;33.130;-117.188;2023-12-28T09:13:41;100113.47;;;13.96;100.00
37848;BME280;23688;33.130;-117.188;2023-12-28T09:16:09;100098.41;;;13.89;100.00
37848;BME280;23688;33.130;-117.188;2023-12-28T09:18:37;100105.53;;;13.93;100.00
37848;BME280;23688;33.130;-117.188;2023-12-28T09:21:04;100109.09;;;13.95;100.00
37848;BME280;23688;33.130;-117.188;2023-12-28T09:23:32;100104.59;;;13.91;100.00
37848;BME280;23688;33.130;-117.188;2023-12-28T09:25:59;100108.31;;;13.98;100.00
37848;BME280;23688;33.130;-117.188;2023-12-28T09:28:26;100099.44;;;13.93;100.00
37848;BME280;23688;33.130;-117.188;2023-12-28T09:30:52;100109.13;;;13.97;100.00
37848;BME280;23688;33.130;-117.188;2023-12-28T09:33:19;100119.81;;;14.03;100.00
37848;BME280;23688;33.130;-117.188;2023-12-28T09:35:46;100119.81;;;14.03;100.00
37848;BME280;23688;33.130;-117.188;2023-12-28T09:38:12;100120.72;;;14.03;100.00
37848;BME280;23688;33.130;-117.188;2023-12-28T09:40:41;100128.47;;;14.02;100.00
37848;BME280;23688;33.130;-117.188;2023-12-28T09:43:30;100132.03;;;14.04;100.00
37848;BME280;23688;33.130;-117.188;2023-12-28T09:46:09;100138.13;;;14.04;100.00
37848;BME280;23688;33.130;-117.188;2023-12-28T09:48:37;100129.50;;;14.05;100.00
37848;BME280;23688;33.130;-117.188;2023-12-28T09:51:05;100132.00;;;14.02;100.00
37848;BME280;23688;33.130;-117.188;2023-12-28T09:53:31;100125.94;;;14.03;100.00
37848;BME280;23688;33.130;-117.188;2023-12-28T09:55:59;100138.28;;;14.07;100.00
37848;BME280;23688;33.130;-117.188;2023-12-28T09:58:25;100132.13;;;14.07;100.00
37848;BME280;23688;33.130;-117.188;2023-12-28T10:00:53;100129.50;;;14.05;100.00
37848;BME280;23688;33.130;-117.188;2023-12-28T10:03:20;100122.59;;;14.07;100.00
37848;BME280;23688;33.130;-117.188;2023-12-28T10:05:47;100122.66;;;14.09;100.00
37848;BME280;23688;33.130;-117.188;2023-12-28T10:08:15;100120.09;;;14.10;100.00
37848;BME280;23688;33.130;-117.188;2023-12-28T10:10:42;100126.19;;;14.09;100.00
37848;BME280;23688;33.130;-117.188;2023-12-28T10:13:12;100139.06;;;14.05;100.00
37848;BME280;23688;33.130;-117.188;2023-12-28T10:15:38;100144.13;;;14.02;100.00
37848;BME280;23688;33.130;-117.188;2023-12-28T10:18:05;100134.72;;;14.05;100.00
37848;BME280;23688;33.130;-117.188;2023-12-28T10:20:32;100126.03;;;14.06;100.00
37848;BME280;23688;33.130;-117.188;2023-12-28T10:22:59;100129.69;;;14.11;100.00
37848;BME280;23688;33.130;-117.188;2023-12-28T10:25:27;100114.88;;;14.10;100.00
37848;BME280;23688;33.130;-117.188;2023-12-28T10:27:54;100120.88;;;14.08;100.00
37848;BME280;23688;33.130;-117.188;2023-12-28T10:30:21;100125.94;;;14.03;100.00
37848;BME280;23688;33.130;-117.188;2023-12-28T10:32:48;100128.59;;;14.05;100.00
37848;BME280;23688;33.130;-117.188;2023-12-28T10:35:14;100126.09;;;14.08;100.00
37848;BME280;23688;33.130;-117.188;2023-12-28T10:37:42;100131.25;;;14.06;100.00
37848;BME280;23688;33.130;-117.188;2023-12-28T10:40:15;100118.19;;;14.06;100.00
37848;BME280;23688;33.130;-117.188;2023-12-28T10:45:14;100121.69;;;14.07;100.00
37848;BME280;23688;33.130;-117.188;2023-12-28T10:47:51;100110.44;;;14.08;100.00
37848;BME280;23688;33.130;-117.188;2023-12-28T10:50:24;100124.38;;;14.08;100.00
37848;BME280;23688;33.130;-117.188;2023-12-28T10:53:00;100123.44;;;14.06;100.00
37848;BME280;23688;33.130;-117.188;2023-12-28T10:55:30;100121.66;;;14.05;100.00
37848;BME280;23688;33.130;-117.188;2023-12-28T10:58:10;100119.72;;;14.00;100.00
37848;BME280;23688;33.130;-117.188;2023-12-28T11:00:45;100122.00;;;13.92;100.00
37848;BME280;23688;33.130;-117.188;2023-12-28T11:03:17;100115.72;;;13.87;100.00
37848;BME280;23688;33.130;-117.188;2023-12-28T11:05:45;100114.66;;;13.82;100.00
37848;BME280;23688;33.130;-117.188;2023-12-28T11:08:13;100127.78;;;13.83;100.00
37848;BME280;23688;33.130;-117.188;2023-12-28T11:10:41;100112.84;;;13.79;100.00
37848;BME280;23688;33.130;-117.188;2023-12-28T11:13:09;100120.13;;;13.88;100.00
37848;BME280;23688;33.130;-117.188;2023-12-28T11:15:36;100108.03;;;13.90;100.00
37848;BME280;23688;33.130;-117.188;2023-12-28T11:18:04;100111.56;;;13.92;100.00
37848;BME280;23688;33.130;-117.188;2023-12-28T11:20:30;100116.75;;;13.90;100.00
37848;BME280;23688;33.130;-117.188;2023-12-28T11:22:57;100101.28;;;13.95;100.00
37848;BME280;23688;33.130;-117.188;2023-12-28T11:25:31;100112.63;;;13.97;100.00
37848;BME280;23688;33.130;-117.188;2023-12-28T11:28:00;100112.78;;;14.00;100.00
37848;BME280;23688;33.130;-117.188;2023-12-28T11:30:27;100118.88;;;14.01;100.00
37848;BME280;23688;33.130;-117.188;2023-12-28T11:32:57;100106.69;;;14.01;100.00
37848;BME280;23688;33.130;-117.188;2023-12-28T11:35:23;100102.38;;;14.02;100.00
37848;BME280;23688;33.130;-117.188;2023-12-28T11:37:58;100100.69;;;14.04;100.00
37848;BME280;23688;33.130;-117.188;2023-12-28T11:40:28;100084.09;;;14.02;100.00
37848;BME280;23688;33.130;-117.188;2023-12-28T11:42:55;100077.16;;;14.02;100.00
37848;BME280;23688;33.130;-117.188;2023-12-28T11:45:24;100085.88;;;14.03;100.00
37848;BME280;23688;33.130;-117.188;2023-12-28T11:48:03;100088.31;;;13.98;100.00
37848;BME280;23688;33.130;-117.188;2023-12-28T11:50:29;100096.16;;;13.98;100.00
37848;BME280;23688;33.130;-117.188;2023-12-28T11:52:55;100088.16;;;13.94;100.00
37848;BME280;23688;33.130;-117.188;2023-12-28T11:55:22;100080.16;;;13.89;100.00
37848;BME280;23688;33.130;-117.188;2023-12-28T11:57:52;100091.47;;;13.89;100.00
37848;BME280;23688;33.130;-117.188;2023-12-28T12:00:18;100084.41;;;13.87;100.00
37848;BME280;23688;33.130;-117.188;2023-12-28T12:02:46;100065.66;;;13.73;100.00
37848;BME280;23688;33.130;-117.188;2023-12-28T12:05:14;100076.38;;;13.81;100.00
37848;BME280;23688;33.130;-117.188;2023-12-28T12:07:40;100081.47;;;13.78;100.00
37848;BME280;23688;33.130;-117.188;2023-12-28T12:10:07;100068.25;;;13.73;100.00
37848;BME280;23688;33.130;-117.188;2023-12-28T12:12:33;100062.72;;;13.65;100.00
37848;BME280;23688;33.130;-117.188;2023-12-28T12:15:00;100075.03;;;13.68;100.00